Ust'Kamchatsk, Russia
Current Conditions -  °F | °C
As of 2:00 AM on Friday 30 Jan 2015 (Local Time) from UHPP Reporting Station
Clear Clear  
Wind Chill: -2°   Ceiling: Unl
Heat Index:   Visibility: 6mi
Dew Point:   Wind: 7mph
Humidity: 79%   Direction: 80°E
Pressure: 30"   Gusts: NA
Location:  56.23°N, 162.46°E
Report Text: UHPP 291400Z 08003MPS 9999 NSC M13/M16 Q1016 NOSIG RMKQFE759/1012 SC050
Loading
Personal Weather Stations






























Interactive Weather Map New forecast layout! Learn more

10-Day Weather Forecast

Advertisements
Track Severe Weather on mobile